Hauptseite
METAR-TAF:

METAR-TAF

Flughäfen :

Flughafen Aurillac

Aurillac, Frankreich

Breite: 44-53N, Länge: 002-25E, Höhe: 639 m

Beobachtung

Neuester Wetterbericht von vor 26 Minuten, um 12:30 UTC
Wind 6 kt aus Süd, variierte zwischen Südost und Süd/Südwest
Temperatur 16°C
Luftfeuchtigkeit 42%
Luftdruck 1024 hPa
Sichtweite 10 km oder mehr

METAR: LFLW 081230Z AUTO 17006KT 130V200 9999 ////// 16/03 Q1024

Zeit: 14:56 (12:56 UTC)


TAF: fehlend

Wetterbeobachtungen und Prognosen von mehr als 4000 Flughäfen (METAR und TAF Bericht).

Die verfügbaren Stationen werden durch gelbe und rote Markierungen auf der Karte dargestellt.

Führen Sie die Maus auf sie, um den Namen der Station zu sehen.

Darauf klicken, um die Beobachtung von Wetterbeobachtungen und Prognosen zu sehen.

Um die Karte zu ändern : klicken Sie auf den grünen Tasten mit einem schwarzen Kreuz Zum Vergrößern, auf den grünen Button mit einem Gedankenstrich zu verkleinern, oder auf die grünen Pfeile für benachbarte Karten.


METAR-TAF: